Time,TemperatureF,DewpointF,PressureIn,WindDirection,WindDirectionDegrees,WindSpeedMPH,WindSpeedGustMPH,Humidity,HourlyPrecipIn,Conditions,Clouds,dailyrainin,SoftwareType,DateUTC
2015-09-03 00:00:00,61.9,59.8,29.84,SE,126,0.0,0.0,93,0.00,,,0.00,WeatherCatV2.01B39,2015-09-03 04:00:00,
2015-09-03 00:05:00,61.8,59.8,29.84,SE,126,0.0,0.0,93,0.00,,,0.00,WeatherCatV2.01B39,2015-09-03 04:05:00,
2015-09-03 00:10:00,61.7,59.7,29.84,SE,126,0.0,0.0,93,0.00,,,0.00,WeatherCatV2.01B39,2015-09-03 04:10:00,
2015-09-03 00:15:00,61.6,59.5,29.84,SE,126,0.0,0.0,93,0.00,,,0.00,WeatherCatV2.01B39,2015-09-03 04:15:00,
2015-09-03 00:20:00,61.5,59.8,29.84,SE,126,0.0,0.0,94,0.00,,,0.00,WeatherCatV2.01B39,2015-09-03 04:20:00,
2015-09-03 00:25:00,61.4,59.7,29.84,SE,126,0.0,0.0,94,0.00,,,0.00,WeatherCatV2.01B39,2015-09-03 04:25:00,
2015-09-03 00:30:00,61.4,59.7,29.84,SE,126,0.0,0.0,94,0.00,,,0.00,WeatherCatV2.01B39,2015-09-03 04:30:00,
2015-09-03 00:35:00,61.4,59.7,29.84,SE,126,0.0,0.0,94,0.00,,,0.00,WeatherCatV2.01B39,2015-09-03 04:35:00,
2015-09-03 00:40:00,61.4,60.0,29.84,SE,126,0.0,0.0,95,0.00,,,0.00,WeatherCatV2.01B39,2015-09-03 04:40:00,
2015-09-03 00:45:00,61.4,59.7,29.84,SE,126,0.0,0.0,94,0.00,,,0.00,WeatherCatV2.01B39,2015-09-03 04:45:00,
2015-09-03 00:50:00,61.4,59.7,29.84,SE,126,0.0,0.0,94,0.00,,,0.00,WeatherCatV2.01B39,2015-09-03 04:50:00,
2015-09-03 00:55:00,61.3,59.6,29.83,SE,126,0.0,0.0,94,0.00,,,0.00,WeatherCatV2.01B39,2015-09-03 04:55:00,
2015-09-03 01:00:00,61.1,59.4,29.83,SE,126,0.0,0.0,94,0.00,,,0.00,WeatherCatV2.01B39,2015-09-03 05:00:00,
2015-09-03 01:05:00,61.0,59.3,29.83,SE,126,0.0,0.0,94,0.00,,,0.00,WeatherCatV2.01B39,2015-09-03 05:05:00,
2015-09-03 01:10:00,60.9,59.2,29.83,SE,126,0.0,0.0,94,0.00,,,0.00,WeatherCatV2.01B39,2015-09-03 05:10:00,
2015-09-03 01:15:00,60.8,59.1,29.84,SE,126,0.0,0.0,94,0.00,,,0.00,WeatherCatV2.01B39,2015-09-03 05:15:00,
2015-09-03 01:20:00,60.7,59.0,29.84,SE,126,0.0,0.0,94,0.00,,,0.00,WeatherCatV2.01B39,2015-09-03 05:20:00,
2015-09-03 01:25:00,60.7,59.0,29.83,SE,126,0.0,0.0,94,0.00,,,0.00,WeatherCatV2.01B39,2015-09-03 05:25:00,
2015-09-03 01:30:00,60.5,58.8,29.83,SE,126,0.0,0.0,94,0.00,,,0.00,WeatherCatV2.01B39,2015-09-03 05:30:00,
2015-09-03 01:35:00,60.6,59.2,29.83,SE,126,0.0,0.0,95,0.00,,,0.00,WeatherCatV2.01B39,2015-09-03 05:35:00,
2015-09-03 01:40:00,60.7,59.3,29.83,SE,126,0.0,0.0,95,0.00,,,0.00,WeatherCatV2.01B39,2015-09-03 05:40:00,
2015-09-03 01:45:00,60.5,58.8,29.83,SE,126,0.0,0.0,94,0.00,,,0.00,WeatherCatV2.01B39,2015-09-03 05:45:00,
2015-09-03 01:50:00,60.4,58.7,29.83,SE,126,0.0,0.0,94,0.00,,,0.00,WeatherCatV2.01B39,2015-09-03 05:50:00,
2015-09-03 01:55:00,60.3,58.6,29.83,SE,126,0.0,0.0,94,0.00,,,0.00,WeatherCatV2.01B39,2015-09-03 05:55:00,
2015-09-03 02:00:00,60.2,58.8,29.83,SE,126,0.0,0.0,95,0.00,,,0.00,WeatherCatV2.01B39,2015-09-03 06:00:00,
2015-09-03 02:05:00,60.3,58.9,29.83,SE,126,0.0,0.0,95,0.00,,,0.00,WeatherCatV2.01B39,2015-09-03 06:05:00,
2015-09-03 02:10:00,60.7,59.5,29.83,SE,126,0.0,0.0,96,0.00,,,0.00,WeatherCatV2.01B39,2015-09-03 06:10:00,
2015-09-03 02:15:00,60.7,59.3,29.82,SE,126,0.0,0.0,95,0.00,,,0.00,WeatherCatV2.01B39,2015-09-03 06:15:00,
2015-09-03 02:20:00,60.5,58.8,29.82,SE,126,0.0,0.0,94,0.00,,,0.00,WeatherCatV2.01B39,2015-09-03 06:20:00,
2015-09-03 02:25:00,60.5,59.1,29.82,SE,126,0.0,0.0,95,0.00,,,0.00,WeatherCatV2.01B39,2015-09-03 06:25:00,
2015-09-03 02:30:00,60.5,59.1,29.82,SE,126,0.0,0.0,95,0.00,,,0.00,WeatherCatV2.01B39,2015-09-03 06:30:00,
2015-09-03 02:35:00,60.5,59.1,29.82,SE,126,0.0,0.0,95,0.00,,,0.00,WeatherCatV2.01B39,2015-09-03 06:35:00,
2015-09-03 02:40:00,60.5,59.1,29.82,SE,126,0.0,0.0,95,0.00,,,0.00,WeatherCatV2.01B39,2015-09-03 06:40:00,
2015-09-03 02:45:00,60.5,59.1,29.82,SE,126,0.0,0.0,95,0.00,,,0.00,WeatherCatV2.01B39,2015-09-03 06:45:00,
2015-09-03 02:50:00,60.4,59.0,29.82,SE,126,0.0,0.0,95,0.00,,,0.00,WeatherCatV2.01B39,2015-09-03 06:50:00,
2015-09-03 02:55:00,60.4,59.0,29.82,SE,126,0.0,0.0,95,0.00,,,0.00,WeatherCatV2.01B39,2015-09-03 06:55:00,
2015-09-03 03:00:00,60.5,59.1,29.82,SE,126,0.0,0.0,95,0.00,,,0.00,WeatherCatV2.01B39,2015-09-03 07:00:00,
2015-09-03 03:05:00,60.4,59.0,29.82,SE,126,0.0,0.0,95,0.00,,,0.00,WeatherCatV2.01B39,2015-09-03 07:05:00,
2015-09-03 03:10:00,60.4,59.0,29.82,SE,126,0.0,0.0,95,0.00,,,0.00,WeatherCatV2.01B39,2015-09-03 07:10:00,
2015-09-03 03:15:00,60.3,58.9,29.82,SE,126,0.0,0.0,95,0.00,,,0.00,WeatherCatV2.01B39,2015-09-03 07:15:00,
2015-09-03 03:20:00,60.2,58.8,29.82,SE,126,0.0,0.0,95,0.00,,,0.00,WeatherCatV2.01B39,2015-09-03 07:20:00,
2015-09-03 03:25:00,60.4,59.2,29.82,SE,126,0.0,0.0,96,0.00,,,0.00,WeatherCatV2.01B39,2015-09-03 07:25:00,
2015-09-03 03:30:00,60.4,59.0,29.82,SE,126,0.0,0.0,95,0.00,,,0.00,WeatherCatV2.01B39,2015-09-03 07:30:00,
2015-09-03 03:35:00,60.3,58.9,29.81,SE,126,0.0,0.0,95,0.00,,,0.00,WeatherCatV2.01B39,2015-09-03 07:35:00,
2015-09-03 03:40:00,60.5,59.3,29.81,SE,126,0.0,0.0,96,0.00,,,0.00,WeatherCatV2.01B39,2015-09-03 07:40:00,
2015-09-03 03:45:00,60.4,59.0,29.81,SE,126,0.0,0.0,95,0.00,,,0.00,WeatherCatV2.01B39,2015-09-03 07:45:00,
2015-09-03 03:50:00,60.4,59.0,29.81,SE,126,0.0,0.0,95,0.00,,,0.00,WeatherCatV2.01B39,2015-09-03 07:50:00,
2015-09-03 03:55:00,60.4,59.0,29.81,SE,126,0.0,0.0,95,0.00,,,0.00,WeatherCatV2.01B39,2015-09-03 07:55:00,
2015-09-03 04:00:00,60.4,59.0,29.82,SE,126,0.0,0.0,95,0.00,,,0.00,WeatherCatV2.01B39,2015-09-03 08:00:00,
2015-09-03 04:05:00,60.4,59.0,29.82,SE,126,0.0,0.0,95,0.00,,,0.00,WeatherCatV2.01B39,2015-09-03 08:05:00,
2015-09-03 04:10:00,60.5,59.3,29.82,SE,126,0.0,0.0,96,0.00,,,0.00,WeatherCatV2.01B39,2015-09-03 08:10:00,
2015-09-03 04:15:00,60.6,59.5,29.82,SE,126,0.0,0.0,96,0.00,,,0.00,WeatherCatV2.01B39,2015-09-03 08:15:00,
2015-09-03 04:20:00,60.8,59.7,29.82,SE,126,0.0,0.0,96,0.00,,,0.00,WeatherCatV2.01B39,2015-09-03 08:20:00,
2015-09-03 04:25:00,60.6,59.2,29.82,SE,126,0.0,0.0,95,0.00,,,0.00,WeatherCatV2.01B39,2015-09-03 08:25:00,
2015-09-03 04:30:00,60.7,59.5,29.82,SE,126,0.0,0.0,96,0.00,,,0.00,WeatherCatV2.01B39,2015-09-03 08:30:00,
2015-09-03 04:35:00,60.9,59.8,29.82,SE,126,0.0,0.0,96,0.00,,,0.00,WeatherCatV2.01B39,2015-09-03 08:35:00,
2015-09-03 04:40:00,60.7,59.0,29.82,SE,126,0.0,0.0,94,0.00,,,0.00,WeatherCatV2.01B39,2015-09-03 08:40:00,
2015-09-03 04:45:00,60.5,59.1,29.82,SE,126,0.0,0.0,95,0.00,,,0.00,WeatherCatV2.01B39,2015-09-03 08:45:00,
2015-09-03 04:50:00,60.4,59.0,29.82,SE,126,0.0,0.0,95,0.00,,,0.00,WeatherCatV2.01B39,2015-09-03 08:50:00,
2015-09-03 04:55:00,60.6,59.5,29.82,SE,126,0.0,0.0,96,0.00,,,0.00,WeatherCatV2.01B39,2015-09-03 08:55:00,
2015-09-03 05:00:00,60.7,59.5,29.82,SE,126,0.0,0.0,96,0.00,,,0.00,WeatherCatV2.01B39,2015-09-03 09:00:00,
2015-09-03 05:05:00,60.6,59.2,29.83,SE,126,0.0,0.0,95,0.00,,,0.00,WeatherCatV2.01B39,2015-09-03 09:05:00,
2015-09-03 05:10:00,60.6,59.2,29.83,SE,126,0.0,0.0,95,0.00,,,0.00,WeatherCatV2.01B39,2015-09-03 09:10:00,
2015-09-03 05:15:00,60.5,59.1,29.83,SE,126,0.0,0.0,95,0.00,,,0.00,WeatherCatV2.01B39,2015-09-03 09:15:00,
2015-09-03 05:20:00,60.5,59.1,29.83,SE,126,0.0,0.0,95,0.00,,,0.00,WeatherCatV2.01B39,2015-09-03 09:20:00,
2015-09-03 05:25:00,60.5,59.1,29.83,SE,126,0.0,0.0,95,0.00,,,0.00,WeatherCatV2.01B39,2015-09-03 09:25:00,
2015-09-03 05:30:00,60.6,59.5,29.83,SE,126,0.0,0.0,96,0.00,,,0.00,WeatherCatV2.01B39,2015-09-03 09:30:00,
2015-09-03 05:35:00,60.7,59.5,29.83,SE,126,0.0,0.0,96,0.00,,,0.00,WeatherCatV2.01B39,2015-09-03 09:35:00,
2015-09-03 05:40:00,60.9,59.8,29.82,SE,126,0.0,0.0,96,0.00,,,0.00,WeatherCatV2.01B39,2015-09-03 09:40:00,
2015-09-03 05:45:00,60.9,59.8,29.82,SE,126,0.0,0.0,96,0.00,,,0.00,WeatherCatV2.01B39,2015-09-03 09:45:00,
2015-09-03 05:50:00,61.2,60.3,29.83,SE,126,0.0,0.0,97,0.00,,,0.00,WeatherCatV2.01B39,2015-09-03 09:50:00,
2015-09-03 05:55:00,61.3,60.4,29.83,SE,126,0.0,0.0,97,0.00,,,0.00,WeatherCatV2.01B39,2015-09-03 09:55:00,
2015-09-03 06:00:00,61.3,60.2,29.83,SE,126,0.0,0.0,96,0.00,,,0.00,WeatherCatV2.01B39,2015-09-03 10:00:00,
2015-09-03 06:05:00,61.1,59.7,29.84,SE,126,0.0,0.0,95,0.00,,,0.00,WeatherCatV2.01B39,2015-09-03 10:05:00,
2015-09-03 06:10:00,61.2,60.0,29.84,SE,126,0.0,0.0,96,0.00,,,0.00,WeatherCatV2.01B39,2015-09-03 10:10:00,
2015-09-03 06:15:00,61.5,60.6,29.83,SE,126,0.0,0.0,97,0.00,,,0.00,WeatherCatV2.01B39,2015-09-03 10:15:00,
2015-09-03 06:20:00,61.4,60.2,29.84,SE,126,0.0,0.0,96,0.00,,,0.00,WeatherCatV2.01B39,2015-09-03 10:20:00,
2015-09-03 06:25:00,61.5,60.3,29.84,SE,126,0.0,0.0,96,0.00,,,0.00,WeatherCatV2.01B39,2015-09-03 10:25:00,
2015-09-03 06:30:00,61.6,60.5,29.83,SE,126,0.0,0.0,96,0.00,,,0.00,WeatherCatV2.01B39,2015-09-03 10:30:00,
2015-09-03 06:35:00,61.5,60.0,29.84,SE,126,0.0,0.0,95,0.00,,,0.00,WeatherCatV2.01B39,2015-09-03 10:35:00,
2015-09-03 06:40:00,61.6,60.5,29.84,SE,126,0.0,0.0,96,0.00,,,0.00,WeatherCatV2.01B39,2015-09-03 10:40:00,
2015-09-03 06:45:00,61.7,60.5,29.84,SE,126,0.0,0.0,96,0.00,,,0.00,WeatherCatV2.01B39,2015-09-03 10:45:00,
2015-09-03 06:50:00,61.7,60.5,29.84,SE,126,0.0,0.0,96,0.00,,,0.00,WeatherCatV2.01B39,2015-09-03 10:50:00,
2015-09-03 07:00:00,61.7,60.5,29.85,SE,126,0.0,0.0,96,0.00,,,0.00,WeatherCatV2.01B39,2015-09-03 11:00:00,
2015-09-03 07:05:00,61.8,60.6,29.85,SE,126,0.0,0.0,96,0.00,,,0.00,WeatherCatV2.01B39,2015-09-03 11:05:00,
2015-09-03 07:10:00,62.0,61.1,29.85,SE,126,0.0,0.0,97,0.00,,,0.00,WeatherCatV2.01B39,2015-09-03 11:10:00,
2015-09-03 07:15:00,62.2,61.3,29.85,SE,126,0.0,0.0,97,0.00,,,0.00,WeatherCatV2.01B39,2015-09-03 11:15:00,
2015-09-03 07:20:00,62.2,61.0,29.85,SE,126,0.0,0.0,96,0.00,,,0.00,WeatherCatV2.01B39,2015-09-03 11:20:00,
2015-09-03 07:25:00,62.3,61.1,29.85,SE,126,0.0,0.0,96,0.00,,,0.00,WeatherCatV2.01B39,2015-09-03 11:25:00,
2015-09-03 07:30:00,62.4,61.5,29.85,SE,126,0.0,0.0,97,0.00,,,0.00,WeatherCatV2.01B39,2015-09-03 11:30:00,
2015-09-03 07:35:00,62.7,61.8,29.85,SE,126,0.0,0.0,97,0.00,,,0.00,WeatherCatV2.01B39,2015-09-03 11:35:00,
2015-09-03 07:40:00,63.2,62.3,29.85,SE,126,0.0,0.0,97,0.00,,,0.00,WeatherCatV2.01B39,2015-09-03 11:40:00,
2015-09-03 07:45:00,63.4,62.5,29.85,SE,126,0.0,0.0,97,0.00,,,0.00,WeatherCatV2.01B39,2015-09-03 11:45:00,
2015-09-03 07:50:00,63.5,62.6,29.85,SE,126,0.0,0.0,97,0.00,,,0.00,WeatherCatV2.01B39,2015-09-03 11:50:00,
2015-09-03 07:55:00,63.8,62.9,29.85,SE,126,0.0,0.0,97,0.00,,,0.00,WeatherCatV2.01B39,2015-09-03 11:55:00,
2015-09-03 08:00:00,64.0,63.1,29.86,SE,126,0.0,0.0,97,0.00,,,0.00,WeatherCatV2.01B39,2015-09-03 12:00:00,
2015-09-03 08:05:00,64.1,63.2,29.86,SE,126,0.0,0.0,97,0.00,,,0.00,WeatherCatV2.01B39,2015-09-03 12:05:00,
2015-09-03 08:10:00,64.4,63.5,29.85,SE,126,0.0,0.0,97,0.00,,,0.00,WeatherCatV2.01B39,2015-09-03 12:10:00,
2015-09-03 08:15:00,64.7,63.8,29.85,SE,126,0.0,0.0,97,0.00,,,0.00,WeatherCatV2.01B39,2015-09-03 12:15:00,
2015-09-03 08:20:00,65.2,64.3,29.86,SE,126,0.0,0.0,97,0.00,,,0.00,WeatherCatV2.01B39,2015-09-03 12:20:00,
2015-09-03 08:25:00,65.7,64.8,29.85,SE,126,0.0,0.0,97,0.00,,,0.00,WeatherCatV2.01B39,2015-09-03 12:25:00,
2015-09-03 08:30:00,66.3,65.1,29.85,SE,126,0.0,0.0,96,0.00,,,0.00,WeatherCatV2.01B39,2015-09-03 12:30:00,
2015-09-03 08:35:00,66.8,65.6,29.85,SE,126,0.0,0.0,96,0.00,,,0.00,WeatherCatV2.01B39,2015-09-03 12:35:00,
2015-09-03 08:40:00,67.2,65.4,29.85,SE,126,0.0,0.0,94,0.00,,,0.00,WeatherCatV2.01B39,2015-09-03 12:40:00,
2015-09-03 08:45:00,67.6,66.1,29.85,SE,126,0.0,0.0,95,0.00,,,0.00,WeatherCatV2.01B39,2015-09-03 12:45:00,
2015-09-03 08:50:00,67.9,66.1,29.85,SE,126,0.0,0.0,94,0.00,,,0.00,WeatherCatV2.01B39,2015-09-03 12:50:00,
2015-09-03 08:55:00,68.2,66.1,29.85,SE,126,0.0,0.0,93,0.00,,,0.00,WeatherCatV2.01B39,2015-09-03 12:55:00,
2015-09-03 09:00:00,68.4,66.3,29.85,SE,126,0.0,0.0,93,0.00,,,0.00,WeatherCatV2.01B39,2015-09-03 13:00:00,
2015-09-03 09:05:00,68.6,66.5,29.85,SE,126,0.0,0.0,93,0.00,,,0.00,WeatherCatV2.01B39,2015-09-03 13:05:00,
2015-09-03 09:10:00,69.0,66.3,29.85,SE,126,0.0,0.0,91,0.00,,,0.00,WeatherCatV2.01B39,2015-09-03 13:10:00,
2015-09-03 09:15:00,69.4,66.3,29.85,SE,126,0.0,0.0,90,0.00,,,0.00,WeatherCatV2.01B39,2015-09-03 13:15:00,
2015-09-03 09:25:00,70.6,67.5,29.85,SE,126,0.0,0.0,90,0.00,,,0.00,WeatherCatV2.01B39,2015-09-03 13:25:00,
2015-09-03 09:30:00,71.0,67.6,29.85,SE,126,0.0,0.0,89,0.00,,,0.00,WeatherCatV2.01B39,2015-09-03 13:30:00,
2015-09-03 09:35:00,71.6,68.5,29.85,SE,126,0.0,0.0,90,0.00,,,0.00,WeatherCatV2.01B39,2015-09-03 13:35:00,
2015-09-03 09:40:00,72.3,69.2,29.84,SE,126,0.0,0.0,90,0.00,,,0.00,WeatherCatV2.01B39,2015-09-03 13:40:00,
2015-09-03 09:45:00,73.0,68.6,29.84,SE,126,0.0,0.0,86,0.00,,,0.00,WeatherCatV2.01B39,2015-09-03 13:45:00,
2015-09-03 09:50:00,73.8,69.0,29.84,SE,126,0.0,0.0,85,0.00,,,0.00,WeatherCatV2.01B39,2015-09-03 13:50:00,
2015-09-03 09:55:00,74.4,69.2,29.84,SE,126,0.0,0.0,84,0.00,,,0.00,WeatherCatV2.01B39,2015-09-03 13:55:00,
2015-09-03 10:00:00,75.1,69.6,29.84,SE,126,0.0,0.0,83,0.00,,,0.00,WeatherCatV2.01B39,2015-09-03 14:00:00,
2015-09-03 10:05:00,75.9,69.3,29.84,SE,126,0.0,0.0,80,0.00,,,0.00,WeatherCatV2.01B39,2015-09-03 14:05:00,
2015-09-03 10:10:00,76.7,70.8,29.83,ESE,122,0.0,0.0,82,0.00,,,0.00,WeatherCatV2.01B39,2015-09-03 14:10:00,
2015-09-03 10:15:00,76.9,70.2,29.84,East,101,0.0,0.0,80,0.00,,,0.00,WeatherCatV2.01B39,2015-09-03 14:15:00,
2015-09-03 10:20:00,77.0,70.3,29.84,East,101,0.0,0.0,80,0.00,,,0.00,WeatherCatV2.01B39,2015-09-03 14:20:00,
2015-09-03 10:25:00,77.3,69.9,29.84,East,101,0.0,0.0,78,0.00,,,0.00,WeatherCatV2.01B39,2015-09-03 14:25:00,
2015-09-03 10:30:00,77.6,69.0,29.83,East,100,0.0,2.0,75,0.00,,,0.00,WeatherCatV2.01B39,2015-09-03 14:30:00,
2015-09-03 10:36:00,78.1,69.1,29.84,East,100,0.0,0.0,74,0.00,,,0.00,WeatherCatV2.01B39,2015-09-03 14:36:00,
2015-09-03 10:41:00,78.3,70.5,29.84,East,100,0.0,0.0,77,0.00,,,0.00,WeatherCatV2.01B39,2015-09-03 14:41:00,
2015-09-03 10:46:00,77.8,68.8,29.84,East,100,0.0,0.0,74,0.00,,,0.00,WeatherCatV2.01B39,2015-09-03 14:46:00,
2015-09-03 10:51:00,77.3,68.3,29.84,East,99,0.0,0.0,74,0.00,,,0.00,WeatherCatV2.01B39,2015-09-03 14:51:00,
2015-09-03 10:56:00,77.0,69.2,29.84,East,91,0.0,2.0,77,0.00,,,0.00,WeatherCatV2.01B39,2015-09-03 14:56:00,
2015-09-03 11:01:00,76.5,68.7,29.84,East,92,0.0,0.0,77,0.00,,,0.00,WeatherCatV2.01B39,2015-09-03 15:01:00,
2015-09-03 11:06:00,76.0,69.7,29.84,East,91,0.0,0.0,81,0.00,,,0.00,WeatherCatV2.01B39,2015-09-03 15:06:00,
2015-09-03 11:11:00,75.6,69.7,29.84,East,92,0.0,0.0,82,0.00,,,0.00,WeatherCatV2.01B39,2015-09-03 15:11:00,